Time;durP1;ratioP1;P1;durP2;ratioP2;P2;SDS_P1;SDS_P2;PMS_P1;PMS_P2;Temp;Humidity;BMP_temperature;BMP_pressure;BME280_temperature;BME280_humidity;BME280_pressure;Samples;Min_cycle;Max_cycle;Signal;HPM_P1;HPM_P2
2022/09/09 00:00:55;;;;;;;6.22;4.65;;;14.40;99.90;;;;;;4946510;28;20102;-86
2022/09/09 00:03:27;;;;;;;8.50;4.80;;;14.40;99.90;;;;;;4928808;28;20046;-85
2022/09/09 00:06:35;;;;;;;7.15;5.43;;;14.30;99.90;;;;;;4948181;28;20089;-85
2022/09/09 00:09:12;;;;;;;6.07;5.05;;;14.30;99.90;;;;;;4909721;29;20049;-86
2022/09/09 00:11:56;;;;;;;8.02;5.35;;;14.20;99.90;;;;;;4942365;28;20063;-85
2022/09/09 00:14:37;;;;;;;10.35;5.53;;;14.20;99.90;;;;;;4931497;28;20046;-85
2022/09/09 00:17:40;;;;;;;8.10;5.28;;;14.20;99.90;;;;;;4947636;28;20070;-86
2022/09/09 00:20:28;;;;;;;7.47;5.18;;;14.20;99.90;;;;;;4929143;28;20051;-86
2022/09/09 00:23:11;;;;;;;11.02;5.90;;;14.20;99.90;;;;;;4931572;28;20500;-87
2022/09/09 00:25:46;;;;;;;8.52;5.93;;;14.10;99.90;;;;;;4944447;28;20047;-85
2022/09/09 00:28:23;;;;;;;9.50;5.80;;;14.20;99.90;;;;;;4947245;28;20105;-85
2022/09/09 00:30:58;;;;;;;8.95;5.90;;;14.10;99.90;;;;;;4960228;28;20550;-85
2022/09/09 00:33:29;;;;;;;9.50;6.50;;;13.50;99.90;;;;;;4933055;28;20051;-86
2022/09/09 00:36:02;;;;;;;8.05;6.05;;;14.10;99.90;;;;;;4963842;28;20051;-86
2022/09/09 00:38:44;;;;;;;10.43;6.82;;;14.10;99.90;;;;;;4945440;28;20129;-86
2022/09/09 00:41:28;;;;;;;8.55;6.78;;;14.10;99.90;;;;;;4963611;28;20535;-85
2022/09/09 00:44:21;;;;;;;8.68;7.15;;;14.10;99.90;;;;;;4946315;28;20093;-85
2022/09/09 00:47:29;;;;;;;8.73;7.10;;;13.20;99.90;;;;;;4920710;28;20055;-86
2022/09/09 00:50:37;;;;;;;9.20;6.70;;;14.10;99.90;;;;;;4919449;28;20055;-87
2022/09/09 00:53:52;;;;;;;8.77;6.78;;;13.40;99.90;;;;;;4930376;28;20079;-85
2022/09/09 00:56:23;;;;;;;7.80;6.78;;;14.10;99.90;;;;;;4910185;28;20059;-86
2022/09/09 00:59:14;;;;;;;8.65;6.60;;;14.10;99.90;;;;;;4949441;28;20079;-85
2022/09/09 01:01:45;;;;;;;8.55;5.97;;;14.10;99.90;;;;;;4946451;28;20082;-87
2022/09/09 01:04:20;;;;;;;10.70;7.70;;;15.50;99.90;;;;;;4914851;28;20046;-86
2022/09/09 01:06:54;;;;;;;8.18;5.93;;;14.10;99.90;;;;;;4933246;28;20070;-88
2022/09/09 01:09:26;;;;;;;9.23;6.22;;;14.20;99.90;;;;;;4945371;28;20134;-86
2022/09/09 01:12:37;;;;;;;8.70;7.00;;;14.20;99.90;;;;;;4934666;28;20047;-85
2022/09/09 01:15:26;;;;;;;10.30;6.82;;;14.20;99.90;;;;;;4919494;28;20588;-85
2022/09/09 01:18:01;;;;;;;7.95;5.95;;;14.20;99.90;;;;;;4931774;28;20073;-85
2022/09/09 01:20:32;;;;;;;11.02;6.70;;;14.20;99.90;;;;;;4930208;28;20051;-85
2022/09/09 01:23:16;;;;;;;7.70;5.88;;;14.20;99.90;;;;;;4950304;28;20145;-87
2022/09/09 01:26:15;;;;;;;8.77;6.78;;;14.20;99.90;;;;;;4962108;28;20053;-85
2022/09/09 01:28:52;;;;;;;9.57;6.88;;;14.20;99.90;;;;;;4934132;28;20145;-86
2022/09/09 01:31:37;;;;;;;10.32;7.05;;;14.20;99.90;;;;;;4948282;28;20039;-86
2022/09/09 01:34:15;;;;;;;9.77;6.45;;;13.50;99.90;;;;;;4936210;28;20133;-85
2022/09/09 01:37:09;;;;;;;9.23;6.78;;;14.20;99.90;;;;;;4936302;28;20114;-86
2022/09/09 01:39:44;;;;;;;7.53;6.20;;;13.80;99.90;;;;;;4935510;28;20109;-85
2022/09/09 01:42:24;;;;;;;9.23;6.63;;;14.70;99.90;;;;;;4947895;28;20047;-86
2022/09/09 01:44:51;;;;;;;9.25;5.93;;;14.20;99.90;;;;;;4949210;28;20063;-85
2022/09/09 01:47:19;;;;;;;9.40;6.40;;;14.20;99.90;;;;;;4932047;28;20051;-87
2022/09/09 01:49:48;;;;;;;8.68;6.68;;;14.20;99.90;;;;;;4950281;28;20122;-85
2022/09/09 01:52:16;;;;;;;8.30;6.22;;;14.20;99.90;;;;;;4948239;28;20054;-86
2022/09/09 01:54:42;;;;;;;12.32;6.97;;;14.20;99.90;;;;;;4919639;28;20097;-86
2022/09/09 01:57:27;;;;;;;11.10;6.55;;;14.20;99.90;;;;;;4919379;28;20441;-84
2022/09/09 02:00:00;;;;;;;10.10;6.18;;;14.20;99.90;;;;;;4932119;28;20543;-85
2022/09/09 02:02:39;;;;;;;10.60;5.95;;;14.20;99.90;;;;;;4949152;28;20114;-85
2022/09/09 02:05:18;;;;;;;8.93;6.60;;;14.30;99.90;;;;;;4933814;28;20138;-85
2022/09/09 02:08:00;;;;;;;8.95;6.63;;;14.20;99.90;;;;;;4935102;28;20520;-86
2022/09/09 02:10:33;;;;;;;7.57;6.30;;;14.20;99.90;;;;;;4949944;28;20050;-85
2022/09/09 02:13:11;;;;;;;9.27;6.50;;;14.20;99.90;;;;;;4930516;28;20051;-85
2022/09/09 02:15:47;;;;;;;8.07;6.10;;;14.20;99.90;;;;;;4945936;28;20082;-87
2022/09/09 02:18:16;;;;;;;8.18;6.45;;;14.10;99.90;;;;;;4946949;28;20128;-87
2022/09/09 02:20:46;;;;;;;7.85;6.40;;;14.10;99.90;;;;;;4928616;28;20055;-87
2022/09/09 02:23:14;;;;;;;8.75;6.47;;;14.10;99.90;;;;;;4948620;28;20046;-87
2022/09/09 02:25:44;;;;;;;7.57;5.72;;;14.00;99.90;;;;;;4945995;28;20050;-86
2022/09/09 02:28:28;;;;;;;9.07;6.57;;;14.00;99.90;;;;;;4929829;28;20129;-86
2022/09/09 02:30:54;;;;;;;7.88;6.45;;;14.00;99.90;;;;;;4963235;28;20047;-86
2022/09/09 02:33:26;;;;;;;8.93;6.15;;;14.30;99.90;;;;;;4945719;28;20039;-86
2022/09/09 02:36:03;;;;;;;10.25;6.10;;;14.00;99.90;;;;;;4946021;28;20065;-88
2022/09/09 02:38:35;;;;;;;10.77;6.88;;;14.20;99.90;;;;;;4946446;28;20054;-86
2022/09/09 02:41:01;;;;;;;7.00;6.30;;;14.00;99.90;;;;;;4930987;28;20507;-85
2022/09/09 02:43:36;;;;;;;8.63;6.88;;;13.90;99.90;;;;;;4947831;28;20051;-85
2022/09/09 02:46:35;;;;;;;7.95;6.03;;;14.00;99.90;;;;;;4944825;28;20055;-85
2022/09/09 02:49:18;;;;;;;7.37;6.03;;;13.90;99.90;;;;;;4947731;28;20050;-87
2022/09/09 02:51:57;;;;;;;8.57;5.93;;;13.90;99.90;;;;;;4945921;28;20059;-87
2022/09/09 02:54:31;;;;;;;10.82;7.03;;;13.90;99.90;;;;;;4933017;28;20046;-85
2022/09/09 02:57:10;;;;;;;9.50;6.60;;;13.90;99.90;;;;;;4934587;28;20050;-84
2022/09/09 02:59:50;;;;;;;7.88;6.05;;;14.00;99.90;;;;;;4933351;28;20070;-85
2022/09/09 03:02:18;;;;;;;13.32;6.20;;;14.00;99.90;;;;;;4962158;28;20050;-85
2022/09/09 03:04:55;;;;;;;9.38;6.63;;;14.00;99.90;;;;;;4931305;28;20504;-84
2022/09/09 03:07:29;;;;;;;8.80;6.80;;;14.00;99.90;;;;;;4948730;28;20041;-84
2022/09/09 03:09:55;;;;;;;11.15;6.88;;;14.00;99.90;;;;;;4951240;28;21623;-85
2022/09/09 03:12:24;;;;;;;12.85;7.35;;;13.10;99.90;;;;;;4930146;28;20086;-88
2022/09/09 03:14:50;;;;;;;8.88;6.68;;;14.10;99.90;;;;;;4949780;28;20137;-86
2022/09/09 03:17:18;;;;;;;11.82;6.95;;;14.00;99.90;;;;;;4935834;28;20412;-85
2022/09/09 03:19:47;;;;;;;14.63;7.35;;;14.00;99.90;;;;;;4914349;28;20438;-85
2022/09/09 03:22:21;;;;;;;10.38;6.72;;;14.00;99.90;;;;;;4946635;28;20051;-84
2022/09/09 03:24:50;;;;;;;10.85;6.70;;;14.00;99.90;;;;;;4929965;28;20055;-86
2022/09/09 03:27:19;;;;;;;7.85;6.30;;;14.00;99.90;;;;;;4931277;28;20038;-85
2022/09/09 03:29:55;;;;;;;9.52;6.75;;;14.20;99.90;;;;;;4950463;28;20471;-85
2022/09/09 03:32:25;;;;;;;10.73;6.57;;;14.10;99.90;;;;;;4936840;28;20049;-84
2022/09/09 03:34:52;;;;;;;7.72;6.10;;;14.10;99.90;;;;;;4929860;28;20082;-86
2022/09/09 03:37:24;;;;;;;9.05;5.85;;;14.10;99.90;;;;;;4947560;28;20053;-86
2022/09/09 03:39:58;;;;;;;7.45;5.82;;;14.10;99.90;;;;;;4935527;28;20050;-85
2022/09/09 03:42:24;;;;;;;7.50;5.78;;;14.10;99.90;;;;;;4949023;28;20113;-85
2022/09/09 03:44:59;;;;;;;9.02;5.85;;;13.60;99.90;;;;;;4932256;28;20099;-85
2022/09/09 03:47:28;;;;;;;9.20;6.17;;;14.20;99.90;;;;;;4945292;28;20082;-87
2022/09/09 03:49:54;;;;;;;9.02;5.88;;;14.20;99.90;;;;;;4945446;28;20039;-84
2022/09/09 03:52:30;;;;;;;8.15;5.72;;;14.10;99.90;;;;;;4933543;28;20399;-85
2022/09/09 03:55:05;;;;;;;6.80;5.65;;;15.20;99.90;;;;;;4950750;28;20039;-85
2022/09/09 03:57:37;;;;;;;7.30;4.93;;;14.20;99.90;;;;;;4929324;28;20050;-85
2022/09/09 04:00:10;;;;;;;9.55;5.63;;;13.70;99.90;;;;;;4933336;28;20050;-85
2022/09/09 04:02:36;;;;;;;7.60;5.65;;;14.10;99.90;;;;;;4948514;28;20049;-86
2022/09/09 04:05:03;;;;;;;8.65;5.88;;;14.10;99.90;;;;;;4966163;28;20053;-85
2022/09/09 04:07:29;;;;;;;8.88;5.72;;;14.10;99.90;;;;;;4932131;28;20408;-86
2022/09/09 04:09:57;;;;;;;9.40;5.80;;;14.10;99.90;;;;;;4930709;28;20050;-85
2022/09/09 04:12:28;;;;;;;7.40;5.60;;;14.00;99.90;;;;;;4940150;28;20058;-86
2022/09/09 04:14:56;;;;;;;7.22;5.45;;;15.10;99.90;;;;;;4947621;28;20046;-85
2022/09/09 04:17:25;;;;;;;7.70;5.65;;;14.00;99.90;;;;;;4935235;28;20051;-85
2022/09/09 04:19:57;;;;;;;8.93;6.03;;;14.00;99.90;;;;;;4949657;28;20053;-85
2022/09/09 04:22:32;;;;;;;10.75;6.80;;;14.10;99.90;;;;;;4946335;28;20046;-86
2022/09/09 04:25:01;;;;;;;11.52;6.68;;;14.00;99.90;;;;;;4945990;28;20413;-85
2022/09/09 04:27:32;;;;;;;9.95;6.72;;;14.00;99.90;;;;;;4918205;28;20098;-85
2022/09/09 04:29:58;;;;;;;10.65;7.75;;;13.90;99.90;;;;;;4934229;28;20101;-88
2022/09/09 04:32:36;;;;;;;11.40;7.65;;;14.00;99.90;;;;;;4930329;28;20463;-84
2022/09/09 04:35:08;;;;;;;9.55;7.35;;;14.10;99.90;;;;;;4943581;28;20051;-84
2022/09/09 04:37:36;;;;;;;12.57;8.95;;;14.00;99.90;;;;;;4929954;28;20507;-86
2022/09/09 04:40:05;;;;;;;12.40;8.80;;;13.70;99.90;;;;;;4966200;28;20047;-88
2022/09/09 04:42:38;;;;;;;12.85;9.18;;;14.70;99.90;;;;;;4945364;28;20499;-85
2022/09/09 04:45:10;;;;;;;10.85;8.35;;;13.10;99.90;;;;;;4930058;28;20063;-85
2022/09/09 04:47:39;;;;;;;15.63;9.80;;;14.00;99.90;;;;;;4933597;28;20053;-85
2022/09/09 04:50:08;;;;;;;10.55;8.73;;;13.70;99.90;;;;;;4948169;28;20050;-84
2022/09/09 04:52:35;;;;;;;12.55;8.23;;;13.90;99.90;;;;;;4937522;28;20054;-85
2022/09/09 04:55:01;;;;;;;12.68;9.90;;;13.90;99.90;;;;;;4947220;28;20054;-86
2022/09/09 04:57:28;;;;;;;13.00;9.75;;;13.90;99.90;;;;;;4942915;28;20050;-86
2022/09/09 04:59:59;;;;;;;13.13;10.48;;;13.90;99.90;;;;;;4945173;28;20062;-85
2022/09/09 05:02:28;;;;;;;11.88;8.93;;;13.90;99.90;;;;;;4930905;28;20046;-85
2022/09/09 05:04:55;;;;;;;15.73;10.05;;;14.10;99.90;;;;;;4931700;28;20051;-85
2022/09/09 05:07:33;;;;;;;;;;;;;;;;;;;;;
2022/09/09 05:09:59;;;;;;;14.90;8.80;;;13.90;99.90;;;;;;4929869;28;20062;-86
2022/09/09 05:12:27;;;;;;;9.50;7.35;;;14.00;99.90;;;;;;4928987;28;20051;-87
2022/09/09 05:14:55;;;;;;;8.90;6.78;;;14.00;99.90;;;;;;4927204;28;20137;-84
2022/09/09 05:17:24;;;;;;;9.77;6.57;;;13.90;99.90;;;;;;4926936;29;20059;-85
2022/09/09 05:20:43;;;;;;;;;;;;;;;;;;;;;
2022/09/09 05:23:39;;;;;;;8.10;5.82;;;14.00;99.90;;;;;;4865747;29;21304;-91
2022/09/09 05:26:36;;;;;;;;;;;;;;;;;;;;;
2022/09/09 05:29:33;;;;;;;8.43;5.43;;;14.00;99.90;;;;;;4968729;28;20099;-91
2022/09/09 05:32:19;;;;;;;;;;;;;;;;;;;;;
2022/09/09 05:37:41;;;;;;;7.78;5.55;;;13.90;99.90;;;;;;4943501;28;20048;-92
2022/09/09 05:40:26;;;;;;;;;;;;;;;;;;;;;
2022/09/09 05:43:09;;;;;;;7.50;5.50;;;14.00;99.90;;;;;;4954705;28;20130;-91
2022/09/09 05:49:42;;;;;;;;;;;;;;;;;;;;;
2022/09/09 05:53:17;;;;;;;8.07;5.35;;;14.00;99.90;;;;;;4942786;29;20061;-87
2022/09/09 05:56:58;;;;;;;7.68;5.95;;;14.00;99.90;;;;;;4937317;29;20070;-87
2022/09/09 05:59:32;;;;;;;8.68;6.47;;;14.20;99.90;;;;;;4947666;28;20043;-88
2022/09/09 06:02:11;;;;;;;10.10;6.68;;;14.20;99.90;;;;;;4961841;29;20090;-91
2022/09/09 06:07:56;;;;;;;;;;;;;;;;;;;;;
2022/09/09 06:10:43;;;;;;;8.23;6.55;;;13.30;99.90;;;;;;4950664;29;20694;-92
2022/09/09 06:13:43;;;;;;;;;;;;;;;;;;;;;
2022/09/09 06:16:11;;;;;;;10.07;6.88;;;15.00;99.90;;;;;;4944684;28;20865;-83
2022/09/09 06:18:40;;;;;;;12.90;7.40;;;14.30;99.90;;;;;;4922628;29;20159;-84
2022/09/09 06:21:34;;;;;;;12.63;8.07;;;14.40;99.90;;;;;;4941497;29;20051;-84
2022/09/09 06:24:00;;;;;;;11.02;8.27;;;14.40;99.90;;;;;;4923520;29;20063;-84
2022/09/09 06:26:35;;;;;;;11.35;8.30;;;14.50;99.90;;;;;;4911147;29;20039;-84
2022/09/09 06:29:03;;;;;;;11.95;8.65;;;14.50;99.90;;;;;;4930671;28;20051;-85
2022/09/09 06:31:31;;;;;;;12.13;8.30;;;14.60;99.90;;;;;;4946945;29;20056;-84
2022/09/09 06:33:58;;;;;;;11.48;8.32;;;14.50;99.90;;;;;;4947320;28;20058;-84
2022/09/09 06:36:26;;;;;;;10.45;8.27;;;14.60;99.90;;;;;;4918210;29;20099;-84
2022/09/09 06:38:53;;;;;;;10.48;8.27;;;14.60;99.90;;;;;;4933758;29;20063;-84
2022/09/09 06:41:21;;;;;;;10.68;8.77;;;14.70;99.90;;;;;;4947175;29;20048;-84
2022/09/09 06:43:47;;;;;;;11.27;9.40;;;14.70;99.90;;;;;;4945699;29;20046;-84
2022/09/09 06:46:19;;;;;;;10.52;8.23;;;14.70;99.90;;;;;;4928501;29;20047;-85
2022/09/09 06:48:46;;;;;;;12.40;9.02;;;14.80;99.90;;;;;;4950129;28;20055;-85
2022/09/09 06:51:21;;;;;;;11.10;8.60;;;14.80;99.90;;;;;;4934534;29;20047;-85
2022/09/09 06:53:49;;;;;;;11.83;9.33;;;14.80;99.90;;;;;;4926940;29;20048;-85
2022/09/09 06:56:39;;;;;;;12.27;9.85;;;14.90;99.90;;;;;;4927503;29;20378;-85
2022/09/09 06:59:09;;;;;;;13.77;10.05;;;15.00;99.90;;;;;;4945265;29;20086;-85
2022/09/09 07:01:49;;;;;;;10.65;8.63;;;15.00;99.90;;;;;;4932854;29;20043;-84
2022/09/09 07:04:14;;;;;;;10.23;8.07;;;14.80;99.90;;;;;;4929152;29;20146;-84
2022/09/09 07:06:43;;;;;;;10.57;8.13;;;15.00;99.90;;;;;;4944984;29;20129;-85
2022/09/09 07:09:11;;;;;;;10.23;9.00;;;15.20;99.90;;;;;;4928566;29;20043;-85
2022/09/09 07:12:05;;;;;;;9.80;8.50;;;15.30;99.90;;;;;;4945275;29;20050;-84
2022/09/09 07:14:32;;;;;;;10.90;7.65;;;15.50;99.90;;;;;;4941783;29;20055;-86
2022/09/09 07:16:58;;;;;;;12.18;8.35;;;14.60;99.90;;;;;;4917449;28;20139;-84
2022/09/09 07:19:24;;;;;;;10.35;7.57;;;15.70;99.90;;;;;;4952619;28;20079;-84
2022/09/09 07:21:52;;;;;;;9.50;7.30;;;14.80;99.90;;;;;;4947535;28;20396;-84
2022/09/09 07:24:20;;;;;;;9.05;6.90;;;15.80;99.90;;;;;;4952120;28;20051;-84
2022/09/09 07:26:46;;;;;;;8.65;6.93;;;15.90;99.90;;;;;;4965864;28;20126;-84
2022/09/09 07:29:15;;;;;;;9.27;6.10;;;16.00;99.90;;;;;;4939419;28;20129;-84
2022/09/09 07:31:42;;;;;;;8.82;6.30;;;16.20;99.90;;;;;;4949940;28;20058;-85
2022/09/09 07:34:08;;;;;;;8.70;6.70;;;16.20;99.90;;;;;;4947786;28;20063;-84
2022/09/09 07:36:39;;;;;;;9.00;6.40;;;16.30;99.90;;;;;;4931697;28;20098;-85
2022/09/09 07:39:09;;;;;;;6.70;6.00;;;16.30;99.90;;;;;;4948100;28;20061;-84
2022/09/09 07:41:37;;;;;;;8.85;6.63;;;16.40;99.90;;;;;;4934760;28;20134;-84
2022/09/09 07:44:08;;;;;;;8.40;6.90;;;16.40;99.90;;;;;;4932650;28;20051;-84
2022/09/09 07:46:35;;;;;;;9.80;6.68;;;16.60;99.90;;;;;;4932722;28;20055;-84
2022/09/09 07:49:04;;;;;;;7.43;6.60;;;16.70;99.90;;;;;;4931116;28;20062;-84
2022/09/09 07:51:41;;;;;;;9.20;6.72;;;16.80;99.90;;;;;;4931738;28;20051;-85
2022/09/09 07:54:12;;;;;;;9.30;6.40;;;16.90;99.90;;;;;;4952917;28;20107;-84
2022/09/09 07:56:39;;;;;;;7.88;6.60;;;16.80;99.90;;;;;;4936246;28;20053;-84
2022/09/09 07:59:06;;;;;;;8.02;5.97;;;16.90;99.90;;;;;;4915051;28;20058;-85
2022/09/09 08:01:35;;;;;;;7.03;5.55;;;17.00;99.90;;;;;;4930628;28;20050;-85
2022/09/09 08:04:14;;;;;;;5.85;4.93;;;17.10;99.90;;;;;;4951038;28;20363;-85
2022/09/09 08:06:43;;;;;;;6.93;5.15;;;17.10;99.90;;;;;;4947721;28;20095;-85
2022/09/09 08:09:10;;;;;;;8.35;4.90;;;17.20;99.90;;;;;;4930143;28;20073;-84
2022/09/09 08:11:39;;;;;;;7.70;4.93;;;17.20;99.90;;;;;;4951510;28;20062;-85
2022/09/09 08:14:07;;;;;;;7.88;5.10;;;17.30;99.90;;;;;;4930686;28;20423;-84
2022/09/09 08:16:36;;;;;;;6.38;4.80;;;17.40;99.90;;;;;;4931544;28;20244;-85
2022/09/09 08:19:03;;;;;;;7.75;4.57;;;17.50;99.90;;;;;;4930935;28;20062;-85
2022/09/09 08:21:31;;;;;;;5.57;4.70;;;17.50;99.90;;;;;;4935363;28;20074;-85
2022/09/09 08:23:59;;;;;;;5.32;4.40;;;17.90;99.90;;;;;;4935154;28;20128;-85
2022/09/09 08:26:37;;;;;;;5.88;4.43;;;17.60;99.90;;;;;;4947881;28;20130;-84
2022/09/09 08:29:05;;;;;;;7.97;4.28;;;17.60;99.90;;;;;;4962720;28;20887;-85
2022/09/09 08:31:37;;;;;;;5.35;4.85;;;17.70;99.90;;;;;;4935409;28;20051;-84
2022/09/09 08:34:07;;;;;;;7.60;4.60;;;17.70;99.90;;;;;;4930100;28;20071;-85
2022/09/09 08:36:39;;;;;;;6.65;4.43;;;17.80;99.90;;;;;;4934459;28;20085;-84
2022/09/09 08:39:07;;;;;;;7.10;3.95;;;17.70;99.90;;;;;;4931597;28;20034;-84
2022/09/09 08:41:45;;;;;;;6.28;4.43;;;17.70;99.90;;;;;;4930939;28;20054;-84
2022/09/09 08:44:33;;;;;;;7.13;4.40;;;17.70;99.90;;;;;;4947814;28;20046;-84
2022/09/09 08:47:38;;;;;;;7.65;3.97;;;17.80;99.90;;;;;;4934788;28;20054;-86
2022/09/09 08:50:21;;;;;;;6.82;3.97;;;17.80;99.90;;;;;;4951193;28;20748;-85
2022/09/09 08:53:07;;;;;;;8.95;4.20;;;17.80;99.90;;;;;;4934808;28;20105;-84
2022/09/09 08:55:55;;;;;;;7.25;3.42;;;17.80;99.90;;;;;;4936553;28;20050;-85
2022/09/09 08:58:30;;;;;;;7.53;4.30;;;17.80;99.90;;;;;;4930169;28;20539;-84
2022/09/09 09:01:08;;;;;;;7.18;4.15;;;17.80;99.90;;;;;;4929937;28;20051;-85
2022/09/09 09:03:56;;;;;;;9.30;4.30;;;17.80;99.90;;;;;;4931002;28;20059;-84
2022/09/09 09:06:33;;;;;;;7.38;4.03;;;17.80;99.90;;;;;;4951419;28;20065;-85
2022/09/09 09:09:13;;;;;;;6.32;3.97;;;17.90;99.90;;;;;;4933356;28;20137;-85
2022/09/09 09:12:00;;;;;;;6.57;4.13;;;17.40;99.90;;;;;;4932082;28;20492;-85
2022/09/09 09:14:32;;;;;;;7.20;3.88;;;17.80;99.90;;;;;;4948466;28;20085;-85
2022/09/09 09:16:57;;;;;;;7.40;3.45;;;18.50;99.90;;;;;;4930081;28;20476;-85
2022/09/09 09:19:26;;;;;;;6.63;3.50;;;18.80;99.90;;;;;;4932444;28;20087;-85
2022/09/09 09:22:12;;;;;;;5.78;3.10;;;19.20;99.90;;;;;;4944024;28;20621;-85
2022/09/09 09:24:50;;;;;;;6.78;2.80;;;19.60;99.90;;;;;;4928767;28;20066;-85
2022/09/09 09:27:32;;;;;;;7.30;2.78;;;19.80;99.90;;;;;;4939101;28;20042;-85
2022/09/09 09:30:08;;;;;;;8.05;2.97;;;20.10;99.90;;;;;;4938640;28;20046;-86
2022/09/09 09:32:36;;;;;;;5.70;2.65;;;20.20;99.90;;;;;;4933977;28;20055;-86
2022/09/09 09:35:09;;;;;;;5.60;2.17;;;20.20;99.90;;;;;;4954949;28;20053;-85
2022/09/09 09:37:35;;;;;;;6.38;2.60;;;20.50;99.90;;;;;;4949739;28;20052;-85
2022/09/09 09:40:09;;;;;;;6.20;2.17;;;20.60;99.90;;;;;;4949134;28;20062;-85
2022/09/09 09:42:49;;;;;;;5.20;2.30;;;19.70;99.90;;;;;;4948485;28;20061;-86
2022/09/09 09:45:25;;;;;;;5.28;2.30;;;20.90;99.90;;;;;;4954427;28;20067;-85
2022/09/09 09:48:03;;;;;;;4.63;2.15;;;21.30;99.90;;;;;;4949983;28;20109;-85
2022/09/09 09:50:31;;;;;;;5.32;2.20;;;20.90;99.90;;;;;;4936402;28;20047;-87
2022/09/09 09:53:04;;;;;;;6.60;2.40;;;21.60;99.90;;;;;;4949840;28;20073;-85
2022/09/09 09:55:36;;;;;;;5.60;2.25;;;21.50;99.90;;;;;;4948359;28;20047;-84
2022/09/09 09:58:05;;;;;;;4.95;2.38;;;21.20;99.90;;;;;;4948628;28;20393;-85
2022/09/09 10:00:36;;;;;;;6.50;2.28;;;21.10;99.90;;;;;;4938559;28;20061;-85
2022/09/09 10:03:23;;;;;;;6.25;2.00;;;21.10;99.90;;;;;;4948172;28;20101;-85
2022/09/09 10:05:49;;;;;;;5.43;1.92;;;21.40;99.90;;;;;;4933204;28;20050;-85
2022/09/09 10:08:17;;;;;;;5.95;1.70;;;22.00;99.90;;;;;;4938203;28;20050;-85
2022/09/09 10:11:27;;;;;;;6.35;2.00;;;21.70;99.90;;;;;;4937157;28;20133;-85
2022/09/09 10:14:22;;;;;;;6.15;1.70;;;21.60;99.90;;;;;;4937529;28;20513;-86
2022/09/09 10:17:27;;;;;;;5.45;1.77;;;21.60;99.90;;;;;;4954345;28;20051;-85
2022/09/09 10:20:23;;;;;;;6.50;1.60;;;21.70;99.90;;;;;;4934656;29;20497;-85
2022/09/09 10:23:17;;;;;;;3.60;1.70;;;21.60;99.90;;;;;;4934804;29;20491;-85
2022/09/09 10:26:08;;;;;;;6.53;1.70;;;21.40;99.90;;;;;;4944716;29;20469;-85
2022/09/09 10:29:12;;;;;;;5.70;1.70;;;21.10;99.90;;;;;;4944919;29;20488;-85
2022/09/09 10:31:52;;;;;;;4.97;1.50;;;21.10;99.90;;;;;;4934209;29;20047;-85
2022/09/09 10:34:54;;;;;;;6.55;1.77;;;20.40;99.90;;;;;;4961879;28;20101;-85
2022/09/09 10:37:32;;;;;;;4.43;1.45;;;20.90;99.90;;;;;;4934772;29;20810;-85
2022/09/09 10:40:16;;;;;;;4.03;1.50;;;20.80;99.90;;;;;;4933739;29;20058;-85
2022/09/09 10:42:43;;;;;;;4.80;1.30;;;20.70;99.90;;;;;;4929352;29;20051;-85
2022/09/09 10:45:37;;;;;;;;;;;;;;;;;;;;;
2022/09/09 10:48:21;;;;;;;5.55;1.42;;;21.00;99.90;;;;;;4950257;29;20501;-85
2022/09/09 10:50:53;;;;;;;3.42;1.30;;;21.20;99.90;;;;;;4930139;29;20051;-86
2022/09/09 10:53:38;;;;;;;4.10;1.10;;;21.70;99.90;;;;;;4933170;29;20122;-86
2022/09/09 10:56:12;;;;;;;6.13;1.47;;;21.80;99.90;;;;;;4929216;29;20412;-85
2022/09/09 10:58:42;;;;;;;5.05;1.40;;;21.80;99.90;;;;;;4929850;28;20074;-85
2022/09/09 11:01:33;;;;;;;4.43;1.30;;;21.80;99.90;;;;;;4949719;29;20063;-85
2022/09/09 11:04:13;;;;;;;3.83;1.27;;;21.60;99.90;;;;;;4946494;29;20062;-86
2022/09/09 11:06:46;;;;;;;3.88;1.48;;;21.50;99.90;;;;;;4934630;29;20059;-86
2022/09/09 11:09:20;;;;;;;6.20;1.48;;;21.30;99.90;;;;;;4933951;29;20047;-84
2022/09/09 11:11:56;;;;;;;3.95;1.15;;;20.90;99.90;;;;;;4928425;28;20480;-85
2022/09/09 11:14:25;;;;;;;6.53;1.90;;;21.30;99.90;;;;;;4944898;28;20048;-85
2022/09/09 11:16:56;;;;;;;3.30;1.55;;;21.20;99.90;;;;;;4945839;28;20051;-85
2022/09/09 11:19:37;;;;;;;7.45;1.55;;;21.30;99.90;;;;;;4946865;28;20054;-85
2022/09/09 11:22:17;;;;;;;4.10;1.27;;;21.50;99.90;;;;;;4929537;29;20051;-85
2022/09/09 11:25:01;;;;;;;3.35;1.33;;;21.60;99.90;;;;;;4933621;28;20050;-86
2022/09/09 11:27:48;;;;;;;5.13;1.52;;;21.50;99.90;;;;;;4933747;29;20098;-86
2022/09/09 11:30:45;;;;;;;5.57;1.50;;;21.30;99.90;;;;;;4945289;28;20051;-85
2022/09/09 11:33:38;;;;;;;5.70;2.03;;;21.10;99.90;;;;;;4943352;28;20371;-86
2022/09/09 11:36:17;;;;;;;3.17;1.50;;;20.80;99.90;;;;;;4927584;28;20528;-85
2022/09/09 11:38:59;;;;;;;4.70;1.70;;;20.80;99.90;;;;;;4959988;28;20051;-85
2022/09/09 11:41:37;;;;;;;5.03;1.83;;;20.80;99.90;;;;;;4927495;29;20059;-86
2022/09/09 11:44:16;;;;;;;4.60;1.80;;;20.70;99.90;;;;;;4926681;29;20062;-85
2022/09/09 11:46:51;;;;;;;4.47;1.45;;;20.60;99.90;;;;;;4932528;28;20102;-85
2022/09/09 11:49:42;;;;;;;5.93;1.42;;;20.50;99.90;;;;;;4959601;28;20198;-85
2022/09/09 11:52:42;;;;;;;6.20;1.67;;;20.40;99.90;;;;;;4943063;29;20050;-85
2022/09/09 11:55:30;;;;;;;5.13;1.65;;;20.60;99.90;;;;;;4944622;28;20051;-85
2022/09/09 11:58:09;;;;;;;5.10;1.42;;;20.80;99.90;;;;;;4928387;29;20059;-86
2022/09/09 12:00:46;;;;;;;3.70;1.65;;;20.90;99.90;;;;;;4932385;29;20134;-85
2022/09/09 12:03:36;;;;;;;6.18;1.40;;;20.60;99.90;;;;;;4927829;29;20128;-85
2022/09/09 12:06:34;;;;;;;6.00;1.70;;;20.70;99.90;;;;;;4959543;28;20060;-85
2022/09/09 12:09:32;;;;;;;4.78;1.75;;;20.60;99.90;;;;;;4943319;29;20051;-86
2022/09/09 12:12:13;;;;;;;5.03;1.55;;;20.60;99.90;;;;;;4924769;29;20067;-85
2022/09/09 12:14:39;;;;;;;5.53;1.50;;;20.40;99.90;;;;;;4946832;28;20051;-85
2022/09/09 12:17:21;;;;;;;4.97;1.55;;;20.30;99.90;;;;;;4943582;28;20050;-87
2022/09/09 12:20:13;;;;;;;5.32;1.73;;;20.20;99.90;;;;;;4960970;28;20062;-85
2022/09/09 12:23:13;;;;;;;5.60;1.80;;;20.10;99.90;;;;;;4951662;28;20499;-86
2022/09/09 12:26:02;;;;;;;5.10;1.88;;;20.10;99.90;;;;;;4936085;28;20043;-85
2022/09/09 12:28:51;;;;;;;5.70;2.08;;;20.30;99.90;;;;;;4936237;28;20054;-84
2022/09/09 12:31:34;;;;;;;5.28;2.20;;;20.40;99.90;;;;;;4946354;28;20137;-85
2022/09/09 12:34:17;;;;;;;5.13;1.65;;;20.30;99.90;;;;;;4930800;28;20055;-87
2022/09/09 12:36:53;;;;;;;3.78;1.92;;;20.20;99.90;;;;;;4945476;28;20058;-85
2022/09/09 12:39:32;;;;;;;4.32;1.67;;;20.30;99.90;;;;;;4934526;28;20050;-85
2022/09/09 12:41:57;;;;;;;5.43;1.90;;;20.50;99.90;;;;;;4951158;28;20058;-85
2022/09/09 12:44:27;;;;;;;4.82;1.60;;;20.40;99.90;;;;;;4946592;28;20050;-85
2022/09/09 12:47:02;;;;;;;3.80;1.52;;;20.40;99.90;;;;;;4947013;28;20043;-85
2022/09/09 12:49:38;;;;;;;5.80;1.80;;;20.30;99.90;;;;;;4935535;28;20051;-85
2022/09/09 12:52:08;;;;;;;;;;;19.60;99.90;;;;;;4945919;28;20054;-85
2022/09/09 12:54:36;;;;;;;4.75;2.28;;;20.20;99.90;;;;;;4949786;28;19949;-85
2022/09/09 12:57:03;;;;;;;4.05;1.65;;;20.20;99.90;;;;;;4951095;28;20053;-86
2022/09/09 12:59:42;;;;;;;4.78;1.60;;;20.20;99.90;;;;;;4930030;28;20055;-87
2022/09/09 13:02:28;;;;;;;6.88;2.10;;;20.20;99.90;;;;;;4950232;28;20055;-85
2022/09/09 13:04:55;;;;;;;;;;;20.30;99.90;;;;;;4955600;28;20047;-85
2022/09/09 13:07:26;;;;;;;5.18;1.80;;;20.60;99.90;;;;;;4954862;28;19932;-85
2022/09/09 13:09:56;;;;;;;6.13;2.00;;;21.10;99.90;;;;;;4933432;28;20057;-85
2022/09/09 13:12:23;;;;;;;6.47;2.03;;;21.00;99.90;;;;;;4933906;28;20130;-86
2022/09/09 13:14:52;;;;;;;5.55;2.03;;;21.50;99.90;;;;;;4933046;28;20113;-85
2022/09/09 13:17:25;;;;;;;6.78;2.05;;;21.50;99.90;;;;;;4936981;28;20367;-86
2022/09/09 13:20:00;;;;;;;6.35;1.85;;;21.70;99.90;;;;;;4965757;28;20054;-87
2022/09/09 13:22:32;;;;;;;5.43;1.88;;;22.10;99.90;;;;;;4946099;28;20043;-85
2022/09/09 13:25:11;;;;;;;3.42;1.58;;;22.70;99.90;;;;;;4933313;28;20054;-85
2022/09/09 13:27:40;;;;;;;4.82;1.40;;;23.10;99.90;;;;;;4950292;28;20051;-87
2022/09/09 13:30:29;;;;;;;4.25;1.60;;;23.10;99.90;;;;;;4953357;28;20492;-86
2022/09/09 13:33:19;;;;;;;2.88;1.13;;;22.50;99.90;;;;;;4940258;28;20051;-85
2022/09/09 13:35:54;;;;;;;5.00;1.58;;;23.00;99.90;;;;;;4950519;28;20492;-86
2022/09/09 13:38:24;;;;;;;4.35;1.40;;;23.00;99.90;;;;;;4936029;28;20056;-84
2022/09/09 13:41:10;;;;;;;4.07;1.40;;;24.00;99.90;;;;;;4967232;28;20057;-85
2022/09/09 13:43:41;;;;;;;3.13;1.38;;;23.70;99.90;;;;;;4934167;28;20065;-85
2022/09/09 13:46:36;;;;;;;4.28;1.45;;;24.30;99.90;;;;;;4956359;28;20050;-86
2022/09/09 13:49:14;;;;;;;6.13;1.55;;;24.50;99.90;;;;;;4934571;28;20051;-85
2022/09/09 13:51:48;;;;;;;4.00;1.33;;;24.60;99.90;;;;;;4966302;28;20081;-86
2022/09/09 13:54:24;;;;;;;3.30;1.37;;;24.90;99.90;;;;;;4937723;28;20507;-86
2022/09/09 13:56:54;;;;;;;2.28;1.15;;;24.60;99.90;;;;;;4933211;28;21339;-85